Time;durP1;ratioP1;P1;durP2;ratioP2;P2;SDS_P1;SDS_P2;PMS_P1;PMS_P2;Temp;Humidity;BMP_temperature;BMP_pressure;BME280_temperature;BME280_humidity;BME280_pressure;Samples;Min_cycle;Max_cycle;Signal;HPM_P1;HPM_P2
2023/02/28 03:01:16;;;;;;;10.47;9.67;;;-1.40;99.90;;;;;;5738962;23;20473;-77
2023/02/28 03:03:45;;;;;;;9.63;8.90;;;-1.40;99.90;;;;;;4972421;28;20450;-78
2023/02/28 03:06:13;;;;;;;10.50;9.50;;;-1.40;99.90;;;;;;4976688;28;20569;-78
2023/02/28 03:08:40;;;;;;;9.13;8.43;;;-1.30;99.90;;;;;;4981490;28;20967;-80
2023/02/28 03:11:13;;;;;;;10.53;9.60;;;-1.30;99.90;;;;;;4984526;28;20963;-79
2023/02/28 03:14:04;;;;;;;10.50;9.50;;;-1.30;99.90;;;;;;4983369;28;20485;-81
2023/02/28 03:16:53;;;;;;;9.93;9.07;;;-1.30;99.90;;;;;;4983898;28;20793;-80
2023/02/28 03:19:34;;;;;;;10.30;9.40;;;-1.20;99.90;;;;;;4986920;28;21006;-79
2023/02/28 03:22:14;;;;;;;10.73;9.77;;;-1.20;99.90;;;;;;4984478;28;20502;-80
2023/02/28 03:24:46;;;;;;;9.70;8.90;;;-1.20;99.90;;;;;;4983693;28;20449;-80
2023/02/28 03:27:20;;;;;;;10.47;9.60;;;-1.20;99.90;;;;;;4984650;28;20959;-80
2023/02/28 03:29:51;;;;;;;11.00;10.00;;;-1.20;99.90;;;;;;4986264;28;20448;-80
2023/02/28 03:32:27;;;;;;;10.77;9.90;;;-1.20;99.90;;;;;;4984263;28;20549;-79
2023/02/28 03:35:03;;;;;;;10.33;9.47;;;-1.10;99.90;;;;;;4984793;28;20464;-81
2023/02/28 03:37:34;;;;;;;10.50;9.50;;;-1.00;99.90;;;;;;4982074;28;20449;-78
2023/02/28 03:40:08;;;;;;;10.77;9.67;;;-1.10;99.90;;;;;;4981504;28;20462;-79
2023/02/28 03:42:38;;;;;;;9.70;9.00;;;-1.10;99.90;;;;;;4977795;28;20584;-79
2023/02/28 03:45:11;;;;;;;10.13;9.33;;;-1.10;99.90;;;;;;4980350;28;20475;-81
2023/02/28 03:47:43;;;;;;;10.03;9.13;;;-1.10;99.90;;;;;;4977543;28;20455;-79
2023/02/28 03:50:17;;;;;;;10.77;9.97;;;-1.10;99.90;;;;;;4982239;28;20454;-82
2023/02/28 03:52:49;;;;;;;10.63;9.67;;;-1.10;99.90;;;;;;4981363;28;20462;-83
2023/02/28 03:55:18;;;;;;;11.20;10.20;;;-1.10;99.90;;;;;;4977741;28;20444;-81
2023/02/28 03:57:55;;;;;;;11.17;10.27;;;-1.10;99.90;;;;;;4970876;28;20540;-82
2023/02/28 04:00:29;;;;;;;11.00;9.93;;;-1.10;99.90;;;;;;4974990;28;20505;-84
2023/02/28 04:02:57;;;;;;;12.00;10.90;;;-1.00;99.90;;;;;;4976095;28;20481;-83
2023/02/28 04:05:25;;;;;;;11.50;10.57;;;-1.10;99.90;;;;;;4975589;28;20893;-82
2023/02/28 04:07:52;;;;;;;11.43;10.47;;;-1.10;99.90;;;;;;4974100;28;20505;-82
2023/02/28 04:10:19;;;;;;;11.30;10.23;;;-1.00;99.90;;;;;;4977416;28;20490;-82
2023/02/28 04:12:46;;;;;;;11.40;10.30;;;-1.00;99.90;;;;;;4979321;28;20545;-80
2023/02/28 04:15:13;;;;;;;11.13;10.13;;;-1.10;99.90;;;;;;4974269;28;20462;-82
2023/02/28 04:17:40;;;;;;;10.87;9.97;;;-1.10;99.90;;;;;;4980198;28;20439;-84
2023/02/28 04:20:10;;;;;;;11.90;10.87;;;-1.10;99.90;;;;;;4978263;28;21003;-83
2023/02/28 04:22:37;;;;;;;11.10;10.20;;;-1.10;99.90;;;;;;4983231;28;20531;-85
2023/02/28 04:25:06;;;;;;;11.17;10.33;;;-1.10;99.90;;;;;;4977977;28;20442;-84
2023/02/28 04:27:33;;;;;;;10.40;9.43;;;-1.00;99.90;;;;;;4977464;28;20464;-83
2023/02/28 04:30:00;;;;;;;10.60;9.80;;;-1.00;99.90;;;;;;4977031;28;20459;-83
2023/02/28 04:32:26;;;;;;;11.57;10.47;;;-1.00;99.90;;;;;;4978405;28;20450;-84
2023/02/28 04:34:53;;;;;;;11.17;10.27;;;-1.10;99.90;;;;;;4981968;28;20454;-83
2023/02/28 04:37:27;;;;;;;10.80;10.00;;;-1.10;99.90;;;;;;4977492;28;20983;-83
2023/02/28 04:39:59;;;;;;;10.90;10.00;;;-1.10;99.90;;;;;;4973309;28;20453;-83
2023/02/28 04:42:26;;;;;;;11.03;10.03;;;-1.10;99.90;;;;;;4980256;28;20892;-84
2023/02/28 04:44:53;;;;;;;11.93;10.93;;;-1.10;99.90;;;;;;4994235;28;20450;-80
2023/02/28 04:47:20;;;;;;;11.37;10.40;;;-1.10;99.90;;;;;;4982587;28;20473;-80
2023/02/28 04:49:47;;;;;;;11.57;10.40;;;-1.00;99.90;;;;;;4985423;28;20470;-79
2023/02/28 04:52:14;;;;;;;12.60;11.33;;;-1.00;99.90;;;;;;4981038;28;20534;-78
2023/02/28 04:54:42;;;;;;;12.13;11.03;;;-1.00;99.90;;;;;;4980688;28;20894;-78
2023/02/28 04:57:09;;;;;;;11.30;10.30;;;-1.00;99.90;;;;;;4983260;28;20463;-80
2023/02/28 04:59:35;;;;;;;11.93;11.03;;;-1.10;99.90;;;;;;4981077;28;20445;-80
2023/02/28 05:02:06;;;;;;;11.43;10.63;;;-1.00;99.90;;;;;;4981220;28;20481;-79
2023/02/28 05:04:33;;;;;;;13.63;12.00;;;-1.00;99.90;;;;;;4982209;28;20466;-79
2023/02/28 05:07:00;;;;;;;11.50;10.60;;;-1.00;99.90;;;;;;4984875;28;20442;-79
2023/02/28 05:09:27;;;;;;;11.97;11.07;;;-1.00;99.90;;;;;;4982787;28;21200;-78
2023/02/28 05:11:56;;;;;;;12.37;11.33;;;-1.00;99.90;;;;;;4979678;28;20536;-79
2023/02/28 05:14:23;;;;;;;13.37;12.13;;;-1.00;99.90;;;;;;4982728;28;20976;-79
2023/02/28 05:16:50;;;;;;;12.30;11.30;;;-1.00;99.90;;;;;;4982539;28;20461;-78
2023/02/28 05:19:16;;;;;;;12.43;11.33;;;-1.00;99.90;;;;;;4984744;28;20446;-79
2023/02/28 05:21:51;;;;;;;12.37;11.27;;;-1.00;99.90;;;;;;4985823;28;20473;-79
2023/02/28 05:24:22;;;;;;;12.47;11.47;;;-1.00;99.90;;;;;;4982303;28;20514;-79
2023/02/28 05:26:51;;;;;;;12.13;11.13;;;-0.90;99.90;;;;;;4985573;28;20481;-80
2023/02/28 05:29:20;;;;;;;11.83;10.73;;;-0.90;99.90;;;;;;4983023;28;20496;-81
2023/02/28 05:31:47;;;;;;;13.03;11.80;;;-0.90;99.90;;;;;;4979404;28;20565;-79
2023/02/28 05:34:15;;;;;;;13.03;11.00;;;-0.90;99.90;;;;;;4985530;28;20506;-81
2023/02/28 05:36:42;;;;;;;12.63;11.43;;;-0.90;99.90;;;;;;4987268;28;20466;-79
2023/02/28 05:39:12;;;;;;;12.33;11.33;;;-0.90;99.90;;;;;;4986062;28;20443;-79
2023/02/28 05:41:43;;;;;;;11.90;11.00;;;-0.90;99.90;;;;;;4988392;28;20566;-81
2023/02/28 05:44:10;;;;;;;13.33;12.03;;;-0.90;99.90;;;;;;4983873;28;20497;-80
2023/02/28 05:46:39;;;;;;;12.63;11.63;;;-0.90;99.90;;;;;;4981868;28;20491;-80
2023/02/28 05:49:05;;;;;;;12.20;11.27;;;-0.90;99.90;;;;;;4980796;28;20441;-80
2023/02/28 05:51:34;;;;;;;12.17;11.17;;;-0.90;99.90;;;;;;4978441;28;20467;-80
2023/02/28 05:54:01;;;;;;;12.57;11.57;;;-0.90;99.90;;;;;;4981546;28;20939;-79
2023/02/28 05:56:28;;;;;;;13.30;12.10;;;-0.90;99.90;;;;;;4982558;28;20442;-80
2023/02/28 05:58:55;;;;;;;13.57;12.30;;;-0.80;99.90;;;;;;4997890;28;20497;-80
2023/02/28 06:01:32;;;;;;;13.90;12.73;;;-0.80;99.90;;;;;;4986295;28;20478;-79
2023/02/28 06:04:01;;;;;;;13.17;12.17;;;-0.80;99.90;;;;;;4981736;28;20461;-79
2023/02/28 06:06:29;;;;;;;13.47;12.27;;;-0.80;99.90;;;;;;4982713;28;20458;-80
2023/02/28 06:08:56;;;;;;;13.77;12.53;;;-0.80;99.90;;;;;;4980541;28;20451;-80
2023/02/28 06:11:26;;;;;;;13.60;12.50;;;-0.80;99.90;;;;;;4979048;28;20484;-80
2023/02/28 06:13:55;;;;;;;14.20;12.90;;;-0.80;99.90;;;;;;4975381;28;20454;-80
2023/02/28 06:16:22;;;;;;;12.80;11.70;;;-0.80;99.90;;;;;;4978512;28;20881;-80
2023/02/28 06:18:48;;;;;;;13.33;12.20;;;-0.80;99.90;;;;;;4981501;28;20936;-79
2023/02/28 06:21:17;;;;;;;14.23;12.93;;;-0.80;99.90;;;;;;4980675;28;20474;-81
2023/02/28 06:23:43;;;;;;;13.80;12.50;;;-0.80;99.90;;;;;;4981066;28;20498;-79
2023/02/28 06:26:10;;;;;;;13.80;12.60;;;-0.80;99.90;;;;;;4973839;28;20507;-80
2023/02/28 06:28:37;;;;;;;13.43;12.23;;;-0.70;99.90;;;;;;4973979;28;20452;-81
2023/02/28 06:31:07;;;;;;;14.10;12.93;;;-0.70;99.90;;;;;;4974133;28;20507;-80
2023/02/28 06:33:34;;;;;;;13.80;12.70;;;-0.70;99.90;;;;;;4979310;28;20477;-80
2023/02/28 06:36:02;;;;;;;14.20;12.90;;;-0.70;99.90;;;;;;4980048;28;20463;-80
2023/02/28 06:38:30;;;;;;;14.30;13.00;;;-0.70;99.90;;;;;;4981052;28;20525;-80
2023/02/28 06:40:58;;;;;;;13.87;12.57;;;-0.60;99.90;;;;;;4980843;28;20538;-80
2023/02/28 06:43:26;;;;;;;14.50;13.20;;;-0.60;99.90;;;;;;4980392;28;20483;-80
2023/02/28 06:45:56;;;;;;;14.73;13.47;;;-0.60;99.90;;;;;;4980107;28;20503;-80
2023/02/28 06:48:23;;;;;;;14.67;13.27;;;-0.60;99.90;;;;;;4980691;28;20436;-80
2023/02/28 06:50:50;;;;;;;13.97;12.67;;;-0.60;99.90;;;;;;4979445;28;20467;-80
2023/02/28 06:53:16;;;;;;;14.77;13.37;;;-0.60;99.90;;;;;;4980056;28;20458;-80
2023/02/28 06:55:45;;;;;;;15.00;13.60;;;-0.60;99.90;;;;;;4978968;28;20558;-79
2023/02/28 06:58:17;;;;;;;14.73;13.47;;;-0.50;99.90;;;;;;4980910;28;20465;-81
2023/02/28 07:00:45;;;;;;;13.87;12.67;;;-0.50;99.90;;;;;;4974973;28;20479;-81
2023/02/28 07:03:15;;;;;;;13.70;12.57;;;-0.50;99.90;;;;;;4979223;28;20472;-80
2023/02/28 07:05:42;;;;;;;14.57;13.17;;;-0.50;99.90;;;;;;4982659;28;20437;-80
2023/02/28 07:08:08;;;;;;;14.63;13.33;;;-0.40;99.90;;;;;;4980876;28;20444;-80
2023/02/28 07:10:37;;;;;;;13.80;12.60;;;-0.40;99.90;;;;;;4981990;28;20475;-80
2023/02/28 07:13:06;;;;;;;14.43;13.17;;;-0.40;99.90;;;;;;4980013;28;20527;-81
2023/02/28 07:15:33;;;;;;;14.50;13.17;;;-0.40;99.90;;;;;;4979335;28;20441;-80
2023/02/28 07:17:59;;;;;;;13.90;12.70;;;-0.40;99.90;;;;;;4980148;28;20440;-80
2023/02/28 07:20:26;;;;;;;14.23;13.03;;;-0.40;99.90;;;;;;4979012;28;20880;-80
2023/02/28 07:22:56;;;;;;;14.60;13.23;;;-0.40;99.90;;;;;;4979887;28;20474;-80
2023/02/28 07:25:23;;;;;;;13.70;12.40;;;-0.40;99.90;;;;;;4976717;28;20463;-81
2023/02/28 07:27:50;;;;;;;15.07;13.77;;;-0.30;99.90;;;;;;4981491;28;20467;-80
2023/02/28 07:30:19;;;;;;;14.73;13.33;;;-0.40;99.90;;;;;;4978821;28;20928;-79
2023/02/28 07:32:46;;;;;;;15.07;13.60;;;-0.30;99.90;;;;;;4980138;28;20448;-80
2023/02/28 07:35:15;;;;;;;14.40;13.10;;;-0.30;99.90;;;;;;4978631;28;20472;-80
2023/02/28 07:37:41;;;;;;;14.67;13.47;;;-0.30;99.90;;;;;;4974814;28;20506;-80
2023/02/28 07:40:12;;;;;;;15.33;13.93;;;-0.30;99.90;;;;;;4981166;28;20439;-80
2023/02/28 07:42:40;;;;;;;16.33;14.83;;;-0.20;99.90;;;;;;4979074;28;20550;-80
2023/02/28 07:45:08;;;;;;;15.23;13.93;;;-0.20;99.90;;;;;;4983370;28;20455;-80
2023/02/28 07:47:36;;;;;;;15.87;14.20;;;-0.10;99.90;;;;;;4982154;28;20874;-80
2023/02/28 07:50:03;;;;;;;15.53;14.13;;;-0.10;99.90;;;;;;4985028;28;20460;-80
2023/02/28 07:52:30;;;;;;;15.43;14.03;;;-0.10;99.90;;;;;;4981678;28;20486;-80
2023/02/28 07:54:57;;;;;;;16.20;14.70;;;0.00;99.90;;;;;;4983646;28;20462;-80
2023/02/28 07:57:24;;;;;;;16.27;14.77;;;0.10;99.90;;;;;;4981874;28;20484;-80
2023/02/28 07:59:50;;;;;;;16.60;15.07;;;0.10;99.90;;;;;;4981626;28;20453;-80
2023/02/28 08:02:18;;;;;;;16.00;14.50;;;0.10;99.90;;;;;;4978971;28;20476;-84
2023/02/28 08:04:47;;;;;;;15.70;14.07;;;0.20;99.90;;;;;;4977884;28;20456;-85
2023/02/28 08:07:15;;;;;;;15.67;14.13;;;0.20;99.90;;;;;;4977850;28;20441;-84
2023/02/28 08:09:42;;;;;;;16.00;14.60;;;0.20;99.90;;;;;;4977446;28;20870;-86
2023/02/28 08:12:10;;;;;;;15.47;14.00;;;0.20;99.90;;;;;;4993511;28;20480;-85
2023/02/28 08:14:37;;;;;;;15.90;14.33;;;0.30;99.90;;;;;;4978780;28;20449;-85
2023/02/28 08:17:05;;;;;;;16.60;14.90;;;0.30;99.90;;;;;;4978449;28;20454;-86
2023/02/28 08:19:32;;;;;;;16.43;14.73;;;0.30;99.90;;;;;;4978799;28;20463;-85
2023/02/28 08:22:00;;;;;;;15.43;14.03;;;0.40;99.90;;;;;;4978092;28;20488;-82
2023/02/28 08:24:27;;;;;;;16.23;14.77;;;0.40;99.90;;;;;;4980071;28;20465;-80
2023/02/28 08:26:53;;;;;;;15.73;14.23;;;0.50;99.90;;;;;;4987164;28;20198;-80
2023/02/28 08:29:20;;;;;;;16.90;15.30;;;0.50;99.90;;;;;;4986102;28;20511;-80
2023/02/28 08:31:47;;;;;;;15.17;13.87;;;0.60;99.90;;;;;;4986639;28;20511;-80
2023/02/28 08:34:16;;;;;;;15.93;13.97;;;0.60;99.90;;;;;;4985608;28;20928;-79
2023/02/28 08:36:44;;;;;;;14.97;13.63;;;0.60;99.90;;;;;;4985203;28;20433;-81
2023/02/28 08:39:13;;;;;;;15.83;13.53;;;0.70;99.90;;;;;;4987602;28;20461;-80
2023/02/28 08:41:41;;;;;;;15.63;14.33;;;0.70;99.90;;;;;;4987036;28;20461;-79
2023/02/28 08:44:07;;;;;;;14.83;13.53;;;0.70;99.90;;;;;;4983777;28;20473;-79
2023/02/28 08:46:34;;;;;;;15.07;13.77;;;0.70;99.90;;;;;;4982683;28;20866;-79
2023/02/28 08:49:01;;;;;;;15.50;14.00;;;0.80;99.90;;;;;;4983334;28;20232;-78
2023/02/28 08:51:29;;;;;;;15.27;13.97;;;0.80;99.90;;;;;;4978230;28;20765;-83
2023/02/28 08:53:59;;;;;;;16.23;14.67;;;0.80;99.90;;;;;;4975004;28;20477;-82
2023/02/28 08:56:28;;;;;;;15.90;14.27;;;0.80;99.90;;;;;;4975980;28;20206;-82
2023/02/28 08:58:56;;;;;;;14.87;13.57;;;0.90;99.90;;;;;;4975446;28;20273;-83
2023/02/28 09:01:26;;;;;;;15.23;13.77;;;0.80;99.90;;;;;;4974799;28;20541;-82
2023/02/28 09:03:54;;;;;;;15.37;13.67;;;0.90;99.90;;;;;;4982908;28;20712;-82
2023/02/28 09:06:22;;;;;;;15.40;13.87;;;0.90;99.90;;;;;;4976203;28;20236;-82
2023/02/28 09:08:49;;;;;;;16.40;14.80;;;1.00;99.90;;;;;;4973748;28;20260;-80
2023/02/28 09:11:18;;;;;;;15.70;14.20;;;1.00;99.90;;;;;;4979773;28;20527;-80
2023/02/28 09:13:46;;;;;;;16.60;14.03;;;1.00;99.90;;;;;;4977738;28;20209;-79
2023/02/28 09:16:15;;;;;;;15.67;14.10;;;1.00;99.90;;;;;;4978250;28;20453;-83
2023/02/28 09:18:43;;;;;;;15.37;14.07;;;1.10;99.90;;;;;;4973197;28;20209;-79
2023/02/28 09:21:13;;;;;;;16.50;14.90;;;1.20;99.90;;;;;;4980309;28;20218;-80
2023/02/28 09:23:41;;;;;;;16.10;14.57;;;1.20;99.90;;;;;;4978571;28;20237;-80
2023/02/28 09:26:08;;;;;;;15.77;14.37;;;1.20;99.90;;;;;;4979134;28;20687;-80
2023/02/28 09:28:35;;;;;;;15.67;14.07;;;1.20;99.90;;;;;;4977435;28;20460;-82
2023/02/28 09:31:04;;;;;;;16.83;15.23;;;1.20;99.90;;;;;;4984003;28;20485;-82
2023/02/28 09:33:31;;;;;;;15.97;14.27;;;1.20;99.90;;;;;;4981630;28;20448;-81
2023/02/28 09:36:00;;;;;;;15.63;14.23;;;1.10;99.90;;;;;;4973100;28;20446;-82
2023/02/28 09:38:27;;;;;;;15.47;13.87;;;1.10;99.90;;;;;;4988330;28;20237;-79
2023/02/28 09:40:56;;;;;;;15.73;14.27;;;1.20;99.90;;;;;;4973672;28;20321;-80
2023/02/28 09:43:27;;;;;;;16.40;14.80;;;1.20;99.90;;;;;;4978537;28;20237;-80
2023/02/28 09:46:00;;;;;;;16.37;14.00;;;1.30;99.90;;;;;;4972422;28;20449;-80
2023/02/28 09:48:32;;;;;;;15.77;14.30;;;1.50;99.90;;;;;;4978102;28;20232;-79
2023/02/28 09:51:03;;;;;;;15.37;13.97;;;1.70;99.90;;;;;;4967811;28;20237;-79
2023/02/28 09:53:33;;;;;;;15.60;14.20;;;1.80;99.90;;;;;;4978262;28;20198;-77
2023/02/28 09:56:03;;;;;;;15.03;13.63;;;1.80;99.90;;;;;;4975230;28;20213;-77
2023/02/28 09:58:38;;;;;;;14.97;13.60;;;1.90;99.90;;;;;;4981327;28;20202;-78
2023/02/28 10:01:11;;;;;;;16.10;14.50;;;2.00;99.90;;;;;;4979564;28;20225;-79
2023/02/28 10:03:47;;;;;;;14.80;13.40;;;2.00;99.90;;;;;;4981675;28;20229;-78
2023/02/28 10:06:18;;;;;;;15.80;14.30;;;2.00;99.90;;;;;;4981196;28;20257;-78
2023/02/28 10:08:53;;;;;;;15.43;14.03;;;1.90;99.90;;;;;;4981735;28;20293;-78
2023/02/28 10:11:22;;;;;;;15.63;14.03;;;2.10;99.90;;;;;;4981477;28;20228;-79
2023/02/28 10:14:01;;;;;;;15.10;13.70;;;2.10;99.90;;;;;;4977928;28;20202;-80
2023/02/28 10:16:32;;;;;;;15.17;13.87;;;2.10;99.90;;;;;;4987272;28;20214;-79
2023/02/28 10:19:04;;;;;;;16.37;14.87;;;2.10;99.90;;;;;;4979820;28;20615;-79
2023/02/28 10:21:36;;;;;;;16.17;14.63;;;2.20;99.90;;;;;;4983768;28;20716;-78
2023/02/28 10:24:12;;;;;;;16.10;14.60;;;2.30;99.90;;;;;;4989206;28;20268;-78
2023/02/28 10:26:39;;;;;;;15.87;14.37;;;2.30;99.90;;;;;;4997319;28;20248;-80
2023/02/28 10:29:08;;;;;;;16.70;15.00;;;2.50;99.90;;;;;;4985393;28;20194;-79
2023/02/28 10:31:35;;;;;;;15.77;14.27;;;2.50;99.90;;;;;;4980274;28;20245;-79
2023/02/28 10:34:05;;;;;;;16.90;15.13;;;2.60;99.90;;;;;;4993984;28;20204;-80
2023/02/28 10:36:33;;;;;;;15.87;14.40;;;2.70;99.90;;;;;;4989081;28;20274;-79
2023/02/28 10:39:00;;;;;;;16.43;14.77;;;2.80;99.90;;;;;;4986479;28;20664;-80
2023/02/28 10:41:34;;;;;;;15.93;14.47;;;3.00;99.90;;;;;;4993189;28;20730;-79
2023/02/28 10:44:16;;;;;;;15.57;14.13;;;2.90;99.90;;;;;;4987400;28;20220;-79
2023/02/28 10:46:43;;;;;;;15.50;13.97;;;2.90;99.90;;;;;;4990529;28;20202;-79
2023/02/28 10:49:20;;;;;;;15.37;13.93;;;3.00;99.90;;;;;;4995948;28;20225;-79
2023/02/28 10:51:50;;;;;;;15.90;14.40;;;2.80;99.90;;;;;;4981877;28;20247;-79
2023/02/28 10:54:20;;;;;;;16.20;14.60;;;2.90;99.90;;;;;;4986485;28;20249;-79
2023/02/28 10:57:06;;;;;;;16.73;15.03;;;3.10;99.90;;;;;;4988489;28;20234;-79
2023/02/28 10:59:33;;;;;;;15.83;14.43;;;2.80;99.90;;;;;;4983309;28;20270;-78
2023/02/28 11:02:00;;;;;;;15.97;14.47;;;2.80;99.90;;;;;;4981640;28;20286;-80
2023/02/28 11:04:39;;;;;;;16.00;14.40;;;3.00;99.90;;;;;;4974748;28;20223;-78
2023/02/28 11:07:07;;;;;;;16.00;14.60;;;3.00;99.90;;;;;;4983741;28;20189;-78
2023/02/28 11:09:36;;;;;;;16.50;14.97;;;2.80;99.90;;;;;;4983503;28;20205;-78
2023/02/28 11:12:05;;;;;;;16.97;15.37;;;2.80;99.90;;;;;;4993327;28;20220;-78
2023/02/28 11:14:35;;;;;;;15.43;13.97;;;2.90;99.90;;;;;;4980016;28;20200;-79
2023/02/28 11:17:14;;;;;;;15.27;13.97;;;3.00;99.90;;;;;;4981320;28;20206;-79
2023/02/28 11:19:47;;;;;;;15.60;14.20;;;3.10;99.90;;;;;;4983701;28;20696;-80
2023/02/28 11:22:20;;;;;;;16.87;14.93;;;3.00;99.90;;;;;;4993765;28;20221;-78
2023/02/28 11:24:51;;;;;;;16.00;14.57;;;3.00;99.90;;;;;;4985088;28;20627;-78
2023/02/28 11:27:57;;;;;;;15.87;14.47;;;3.20;99.90;;;;;;4979808;28;20202;-78
2023/02/28 11:30:33;;;;;;;15.80;14.33;;;3.30;99.90;;;;;;4975306;28;20263;-79
2023/02/28 11:33:01;;;;;;;15.90;14.50;;;3.60;99.90;;;;;;4980091;28;20221;-79
2023/02/28 11:35:34;;;;;;;15.70;14.33;;;3.60;99.90;;;;;;4984006;28;20191;-78
2023/02/28 11:38:01;;;;;;;17.20;15.53;;;3.70;99.90;;;;;;4982645;28;20253;-78
2023/02/28 11:40:37;;;;;;;16.20;14.53;;;3.60;99.90;;;;;;4983718;28;20221;-79
2023/02/28 11:43:23;;;;;;;15.60;14.20;;;3.60;99.90;;;;;;4974441;28;20197;-82
2023/02/28 11:46:04;;;;;;;15.80;14.43;;;3.80;99.90;;;;;;4981479;28;20677;-79
2023/02/28 11:48:38;;;;;;;17.47;16.03;;;3.70;99.90;;;;;;4984109;28;20211;-79
2023/02/28 11:51:15;;;;;;;16.13;14.73;;;3.80;99.90;;;;;;4982297;28;20271;-78
2023/02/28 11:53:59;;;;;;;16.83;15.33;;;3.90;99.90;;;;;;4983277;28;20199;-80
2023/02/28 11:56:33;;;;;;;16.63;15.17;;;3.60;99.90;;;;;;4983869;28;20296;-79
2023/02/28 11:59:19;;;;;;;16.70;15.23;;;3.70;99.90;;;;;;5014282;28;20213;-79
2023/02/28 12:02:05;;;;;;;15.17;13.77;;;3.80;99.90;;;;;;4986342;28;20285;-79
2023/02/28 12:04:40;;;;;;;16.20;14.70;;;3.80;99.90;;;;;;4979182;28;20736;-80
2023/02/28 12:07:16;;;;;;;16.27;14.87;;;4.10;99.90;;;;;;4982216;28;20257;-78
2023/02/28 12:09:54;;;;;;;15.53;14.13;;;4.20;99.90;;;;;;4982348;28;20199;-78
2023/02/28 12:12:32;;;;;;;15.23;13.83;;;4.20;99.90;;;;;;4984172;28;20212;-81
2023/02/28 12:15:33;;;;;;;17.03;15.43;;;4.30;99.90;;;;;;4979469;28;20205;-80
2023/02/28 12:18:14;;;;;;;17.17;15.47;;;4.40;99.90;;;;;;4980718;28;20753;-80
2023/02/28 12:20:50;;;;;;;17.37;15.73;;;4.40;99.90;;;;;;4984270;28;20199;-81
2023/02/28 12:23:39;;;;;;;15.97;14.57;;;4.40;99.90;;;;;;4983356;28;20198;-78
2023/02/28 12:26:16;;;;;;;16.43;15.03;;;4.50;99.90;;;;;;4976031;28;20204;-80
2023/02/28 12:28:47;;;;;;;16.23;14.63;;;4.40;99.90;;;;;;4983152;28;20203;-79
2023/02/28 12:31:21;;;;;;;16.20;14.73;;;4.30;99.90;;;;;;4984456;28;20248;-81
2023/02/28 12:33:52;;;;;;;17.20;15.50;;;4.40;99.90;;;;;;4983672;28;20212;-79
2023/02/28 12:36:21;;;;;;;17.00;15.50;;;4.60;99.90;;;;;;4980702;28;20203;-78
2023/02/28 12:38:56;;;;;;;17.07;15.47;;;4.50;99.90;;;;;;4979576;28;20278;-79
2023/02/28 12:41:30;;;;;;;16.73;15.23;;;4.40;99.90;;;;;;4981945;28;20230;-78
2023/02/28 12:44:02;;;;;;;16.53;15.13;;;4.40;99.90;;;;;;4984222;28;20211;-80
2023/02/28 12:46:34;;;;;;;16.10;14.53;;;4.30;99.90;;;;;;4980432;28;20202;-79
2023/02/28 12:49:07;;;;;;;15.67;14.30;;;4.30;99.90;;;;;;4982888;28;20233;-80
2023/02/28 12:51:36;;;;;;;15.37;14.07;;;4.40;99.90;;;;;;4985945;28;20230;-82
2023/02/28 12:54:15;;;;;;;16.47;14.90;;;4.50;99.90;;;;;;4983389;28;20552;-80
2023/02/28 12:56:49;;;;;;;15.90;14.50;;;4.70;99.90;;;;;;4982254;28;20210;-78
2023/02/28 12:59:23;;;;;;;16.43;14.93;;;4.80;99.90;;;;;;4974114;28;20245;-77
2023/02/28 13:02:10;;;;;;;16.53;15.00;;;4.90;99.90;;;;;;4986417;28;20230;-77
2023/02/28 13:04:58;;;;;;;16.80;15.30;;;5.00;99.90;;;;;;4976866;28;20219;-78
2023/02/28 13:08:05;;;;;;;16.10;14.67;;;5.00;99.90;;;;;;4969073;28;20314;-80
2023/02/28 13:10:45;;;;;;;15.80;14.40;;;5.00;99.90;;;;;;4985709;28;20207;-78
2023/02/28 13:13:17;;;;;;;17.03;15.43;;;4.80;99.90;;;;;;4976281;28;20206;-77
2023/02/28 13:15:59;;;;;;;17.33;15.73;;;4.80;99.90;;;;;;4975674;28;20294;-78
2023/02/28 13:18:37;;;;;;;16.23;14.67;;;4.70;99.90;;;;;;4977064;28;20262;-78
2023/02/28 13:21:06;;;;;;;16.23;14.80;;;4.70;99.90;;;;;;4978494;28;20792;-79
2023/02/28 13:24:02;;;;;;;15.73;14.13;;;4.70;99.90;;;;;;4976189;28;20664;-79
2023/02/28 13:27:08;;;;;;;15.50;14.10;;;4.70;99.90;;;;;;4973720;28;20194;-78
2023/02/28 13:29:38;;;;;;;15.80;14.20;;;4.60;99.90;;;;;;4969105;28;20737;-77
2023/02/28 13:32:39;;;;;;;16.33;14.83;;;4.70;99.90;;;;;;4968814;28;20214;-78
2023/02/28 13:35:44;;;;;;;16.73;15.23;;;4.80;99.90;;;;;;4914005;29;20204;-78
2023/02/28 13:38:36;;;;;;;16.07;14.60;;;4.90;99.90;;;;;;4971045;28;20288;-77
2023/02/28 13:41:55;;;;;;;16.77;15.37;;;5.00;99.90;;;;;;4969985;28;20237;-76
2023/02/28 13:44:26;;;;;;;16.77;15.07;;;5.10;99.90;;;;;;4988530;28;20218;-76
2023/02/28 13:47:28;;;;;;;16.93;15.23;;;5.10;99.90;;;;;;4981291;28;20281;-76
2023/02/28 13:50:16;;;;;;;16.97;15.27;;;5.10;99.90;;;;;;4974295;28;20207;-77
2023/02/28 13:52:53;;;;;;;16.90;15.30;;;5.00;99.90;;;;;;4973463;28;20771;-77
2023/02/28 13:55:27;;;;;;;16.37;14.90;;;5.00;99.90;;;;;;4973313;28;20205;-78
2023/02/28 13:58:44;;;;;;;17.70;15.90;;;5.10;99.90;;;;;;4975201;28;20210;-86
2023/02/28 14:01:34;;;;;;;15.63;14.23;;;5.20;99.90;;;;;;4960204;28;20829;-78
2023/02/28 14:04:29;;;;;;;16.13;14.77;;;5.20;99.90;;;;;;4976843;28;20199;-78
2023/02/28 14:06:58;;;;;;;15.37;13.97;;;5.20;99.90;;;;;;4979899;28;20253;-81
2023/02/28 14:09:27;;;;;;;15.10;13.70;;;5.30;99.90;;;;;;4976499;28;20258;-82
2023/02/28 14:12:46;;;;;;;15.80;14.50;;;5.30;99.90;;;;;;4974701;28;20235;-80
2023/02/28 14:15:46;;;;;;;17.07;15.63;;;5.40;99.90;;;;;;4968536;28;20250;-81
2023/02/28 14:18:24;;;;;;;15.83;14.40;;;5.40;99.90;;;;;;4978249;28;20206;-81
2023/02/28 14:20:58;;;;;;;16.63;15.13;;;5.50;99.90;;;;;;4978819;28;20573;-80
2023/02/28 14:23:58;;;;;;;15.73;14.17;;;5.40;99.90;;;;;;4975299;28;20566;-80
2023/02/28 14:26:56;;;;;;;15.67;14.23;;;5.50;99.90;;;;;;4971626;28;20223;-81
2023/02/28 14:29:37;;;;;;;15.97;14.50;;;5.50;99.90;;;;;;4973431;28;20199;-80
2023/02/28 14:32:12;;;;;;;15.50;14.20;;;5.70;99.90;;;;;;4977076;28;20219;-80
2023/02/28 14:34:45;;;;;;;16.63;15.23;;;5.70;99.90;;;;;;4973502;28;20478;-78
2023/02/28 14:37:17;;;;;;;16.30;14.73;;;5.70;99.90;;;;;;4973281;28;20625;-79
2023/02/28 14:39:45;;;;;;;16.13;14.73;;;5.70;99.90;;;;;;4978490;28;20198;-80
2023/02/28 14:42:30;;;;;;;16.37;14.77;;;5.70;99.90;;;;;;4978113;28;20219;-78
2023/02/28 14:44:57;;;;;;;16.50;14.97;;;5.70;99.90;;;;;;4977865;28;20216;-79
2023/02/28 14:47:27;;;;;;;15.87;14.57;;;5.80;99.90;;;;;;4975009;28;20223;-78
2023/02/28 14:49:55;;;;;;;16.27;14.70;;;5.80;99.90;;;;;;4973850;28;20203;-79
2023/02/28 14:52:27;;;;;;;15.93;14.43;;;5.70;99.90;;;;;;4976912;28;20234;-82
2023/02/28 14:54:55;;;;;;;15.43;14.10;;;5.70;99.90;;;;;;4984248;28;20242;-82
2023/02/28 14:57:24;;;;;;;15.90;14.47;;;5.80;99.90;;;;;;4982413;28;20215;-78
2023/02/28 15:00:10;;;;;;;15.77;14.47;;;5.90;99.90;;;;;;4976687;28;20293;-79
2023/02/28 15:02:37;;;;;;;16.73;15.33;;;5.90;99.90;;;;;;4969741;28;20262;-79
2023/02/28 15:05:22;;;;;;;15.43;14.20;;;5.90;99.90;;;;;;4974599;28;20900;-79
2023/02/28 15:08:02;;;;;;;16.23;14.60;;;5.90;99.90;;;;;;4974340;28;20210;-78
2023/02/28 15:10:30;;;;;;;15.53;14.20;;;5.80;99.90;;;;;;4975021;28;20732;-79
2023/02/28 15:12:59;;;;;;;15.50;14.20;;;5.90;99.90;;;;;;4980383;28;20200;-80
2023/02/28 15:15:34;;;;;;;15.47;13.87;;;5.90;99.90;;;;;;4995705;23;20660;-79
2023/02/28 15:18:03;;;;;;;16.07;14.57;;;5.80;99.90;;;;;;4989319;28;20207;-78
2023/02/28 15:20:30;;;;;;;15.00;13.63;;;5.80;99.90;;;;;;4977549;28;20250;-79
2023/02/28 15:22:59;;;;;;;16.00;14.50;;;5.80;99.90;;;;;;4974884;28;20211;-79
2023/02/28 15:25:27;;;;;;;15.27;13.87;;;5.80;99.90;;;;;;4982371;28;20222;-79
2023/02/28 15:27:57;;;;;;;15.57;14.17;;;5.70;99.90;;;;;;4980979;28;20568;-79
2023/02/28 15:30:27;;;;;;;15.70;14.33;;;5.70;99.90;;;;;;4974703;28;20666;-79
2023/02/28 15:33:19;;;;;;;15.93;14.43;;;5.70;99.90;;;;;;4976002;28;20204;-79
2023/02/28 15:35:47;;;;;;;15.70;14.10;;;5.70;99.90;;;;;;4973735;28;20218;-78
2023/02/28 15:38:22;;;;;;;14.97;13.50;;;5.60;99.90;;;;;;4973306;28;20202;-78
2023/02/28 15:40:57;;;;;;;15.37;13.87;;;5.50;99.90;;;;;;4971239;28;20621;-79
2023/02/28 15:43:29;;;;;;;14.93;13.63;;;5.50;99.90;;;;;;4971447;28;20221;-79
2023/02/28 15:46:00;;;;;;;14.07;12.87;;;5.40;99.90;;;;;;4970385;28;20650;-78
2023/02/28 15:48:30;;;;;;;15.53;14.13;;;5.40;99.90;;;;;;4971736;28;20580;-79
2023/02/28 15:51:02;;;;;;;15.83;14.23;;;5.40;99.90;;;;;;4974423;28;20534;-78
2023/02/28 15:53:34;;;;;;;15.27;13.83;;;5.40;99.90;;;;;;4971463;28;20261;-79
2023/02/28 15:56:03;;;;;;;14.50;13.20;;;5.40;99.90;;;;;;4970719;28;20199;-79
2023/02/28 15:58:30;;;;;;;15.20;13.77;;;5.40;99.90;;;;;;4972504;28;20250;-79
2023/02/28 16:01:16;;;;;;;14.10;12.90;;;5.40;99.90;;;;;;4971148;28;20209;-79